Time;durP1;ratioP1;P1;durP2;ratioP2;P2;SDS_P1;SDS_P2;PMS_P1;PMS_P2;Temp;Humidity;BMP_temperature;BMP_pressure;BME280_temperature;BME280_humidity;BME280_pressure;Samples;Min_cycle;Max_cycle;Signal;HPM_P1;HPM_P2
2023/11/02 00:00:36;;;;;;;3.15;2.35;;;7.40;99.90;;;;;;5004043;28;20109;-85
2023/11/02 00:03:03;;;;;;;3.30;1.83;;;7.40;99.90;;;;;;4995301;28;20050;-85
2023/11/02 00:05:54;;;;;;;2.20;1.80;;;7.40;99.90;;;;;;4978505;28;20395;-86
2023/11/02 00:08:21;;;;;;;2.38;2.15;;;7.40;99.90;;;;;;4960149;28;20027;-86
2023/11/02 00:10:47;;;;;;;2.15;1.88;;;7.40;99.90;;;;;;4979034;28;20027;-85
2023/11/02 00:13:29;;;;;;;2.15;1.80;;;7.30;99.90;;;;;;4978520;28;20030;-85
2023/11/02 00:15:56;;;;;;;3.47;2.42;;;7.30;99.90;;;;;;4979576;28;20052;-85
2023/11/02 00:18:23;;;;;;;2.40;1.60;;;7.60;99.90;;;;;;4983056;28;20030;-85
2023/11/02 00:20:54;;;;;;;2.55;2.17;;;7.30;99.90;;;;;;4982708;28;20548;-85
2023/11/02 00:23:40;;;;;;;2.63;1.95;;;7.30;99.90;;;;;;4982920;28;20398;-85
2023/11/02 00:26:05;;;;;;;2.92;1.58;;;8.00;99.90;;;;;;4998320;28;20046;-85
2023/11/02 00:28:31;;;;;;;1.95;1.83;;;7.50;99.90;;;;;;4982801;28;20034;-85
2023/11/02 00:30:58;;;;;;;2.25;1.65;;;7.10;99.90;;;;;;4983088;28;20030;-85
2023/11/02 00:33:24;;;;;;;4.80;1.65;;;7.10;99.90;;;;;;4982105;28;20101;-85
2023/11/02 00:35:52;;;;;;;4.07;2.22;;;7.30;99.90;;;;;;4982613;28;20030;-85
2023/11/02 00:38:26;;;;;;;3.90;2.10;;;7.10;99.90;;;;;;4982771;28;20544;-86
2023/11/02 00:40:53;;;;;;;4.00;2.15;;;7.10;99.90;;;;;;4982840;28;20110;-85
2023/11/02 00:43:19;;;;;;;3.83;2.10;;;7.40;99.90;;;;;;4982774;28;20076;-85
2023/11/02 00:45:45;;;;;;;1.90;1.70;;;7.10;99.90;;;;;;4982036;28;20034;-85
2023/11/02 00:48:21;;;;;;;15.27;2.40;;;7.30;99.90;;;;;;4981400;28;20101;-85
2023/11/02 00:51:12;;;;;;;2.88;1.90;;;7.00;99.90;;;;;;4981855;28;20077;-85
2023/11/02 00:53:44;;;;;;;2.35;2.10;;;6.90;99.90;;;;;;4981899;28;20069;-86
2023/11/02 00:56:11;;;;;;;1.88;1.77;;;6.90;99.90;;;;;;4982322;28;20025;-86
2023/11/02 00:58:46;;;;;;;2.28;2.08;;;6.80;99.90;;;;;;4982259;28;20031;-85
2023/11/02 01:01:14;;;;;;;2.88;1.98;;;6.80;99.90;;;;;;4981752;28;20057;-85
2023/11/02 01:03:45;;;;;;;2.75;1.98;;;7.50;99.90;;;;;;4981039;28;20034;-86
2023/11/02 01:06:19;;;;;;;5.05;2.00;;;7.40;99.90;;;;;;4981341;28;20030;-85
2023/11/02 01:08:53;;;;;;;4.25;2.00;;;7.40;99.90;;;;;;4981615;28;20110;-85
2023/11/02 01:11:20;;;;;;;5.22;2.38;;;6.80;99.90;;;;;;4981731;28;20038;-85
2023/11/02 01:13:46;;;;;;;4.47;2.50;;;7.40;99.90;;;;;;4981386;28;20421;-85
2023/11/02 01:16:11;;;;;;;4.15;2.15;;;7.10;99.90;;;;;;4981438;28;20109;-85
2023/11/02 01:18:44;;;;;;;5.15;2.40;;;7.50;99.90;;;;;;4982077;28;20022;-85
2023/11/02 01:21:10;;;;;;;3.97;2.35;;;7.00;99.90;;;;;;4981993;28;20035;-85
2023/11/02 01:23:36;;;;;;;6.00;2.70;;;6.80;99.90;;;;;;4981705;28;20057;-85
2023/11/02 01:26:04;;;;;;;4.13;2.83;;;7.10;99.90;;;;;;4981171;28;20030;-85
2023/11/02 01:28:51;;;;;;;4.90;2.58;;;6.90;99.90;;;;;;4981830;28;20026;-85
2023/11/02 01:31:19;;;;;;;4.00;2.22;;;6.90;99.90;;;;;;4982106;28;20034;-85
2023/11/02 01:34:02;;;;;;;4.25;1.52;;;6.90;99.90;;;;;;4981728;28;20023;-85
2023/11/02 01:36:37;;;;;;;2.85;1.88;;;6.90;99.90;;;;;;4981823;28;20030;-85
2023/11/02 01:39:05;;;;;;;2.70;1.67;;;6.90;99.90;;;;;;4999402;28;20026;-85
2023/11/02 01:41:38;;;;;;;6.15;2.15;;;6.90;99.90;;;;;;4997617;28;20027;-85
2023/11/02 01:44:21;;;;;;;3.50;1.83;;;6.90;99.90;;;;;;4981071;28;20027;-85
2023/11/02 01:47:13;;;;;;;2.00;1.77;;;6.90;99.90;;;;;;4980798;28;20073;-85
2023/11/02 01:49:59;;;;;;;1.83;1.50;;;6.90;99.90;;;;;;4981121;28;20395;-86
2023/11/02 01:52:34;;;;;;;1.63;1.52;;;6.80;99.90;;;;;;4980385;28;20019;-85
2023/11/02 01:55:40;;;;;;;1.17;1.08;;;6.80;99.90;;;;;;4996396;28;20494;-85
2023/11/02 01:58:16;;;;;;;1.90;1.37;;;6.80;99.90;;;;;;4980399;28;20518;-85
2023/11/02 02:00:50;;;;;;;5.28;1.90;;;6.60;99.90;;;;;;4996645;28;20125;-85
2023/11/02 02:03:26;;;;;;;3.47;1.60;;;7.70;99.90;;;;;;4979928;28;20556;-85
2023/11/02 02:06:22;;;;;;;1.73;1.10;;;6.50;99.90;;;;;;4979878;28;20545;-86
2023/11/02 02:09:07;;;;;;;2.40;2.00;;;6.60;99.90;;;;;;4980110;28;20022;-85
2023/11/02 02:11:33;;;;;;;1.90;1.75;;;6.60;99.90;;;;;;4996163;28;20027;-85
2023/11/02 02:14:11;;;;;;;3.50;2.08;;;6.50;99.90;;;;;;4995886;28;20508;-85
2023/11/02 02:16:58;;;;;;;2.83;1.85;;;6.80;99.90;;;;;;4979634;28;20030;-85
2023/11/02 02:19:56;;;;;;;2.60;1.88;;;6.50;99.90;;;;;;4979951;28;20046;-85
2023/11/02 02:22:28;;;;;;;2.45;1.80;;;6.40;99.90;;;;;;4947306;28;20045;-86
2023/11/02 02:25:06;;;;;;;2.05;1.85;;;6.30;99.90;;;;;;4979299;28;20033;-85
2023/11/02 02:27:54;;;;;;;2.90;1.48;;;6.30;99.90;;;;;;4979726;28;20026;-86
2023/11/02 02:30:32;;;;;;;2.58;1.70;;;6.30;99.90;;;;;;4971832;28;20031;-85
2023/11/02 02:33:16;;;;;;;1.65;1.55;;;6.30;99.90;;;;;;4997497;28;20019;-85
2023/11/02 02:35:56;;;;;;;2.20;2.00;;;6.30;99.90;;;;;;4998872;28;20386;-85
2023/11/02 02:38:32;;;;;;;1.48;1.38;;;6.40;99.90;;;;;;4993166;28;20026;-86
2023/11/02 02:41:12;;;;;;;5.35;1.85;;;6.60;99.90;;;;;;4997640;28;20038;-85
2023/11/02 02:43:39;;;;;;;2.22;1.75;;;6.40;99.90;;;;;;4998278;28;20018;-85
2023/11/02 02:46:07;;;;;;;2.17;1.48;;;7.40;99.90;;;;;;4997204;28;20042;-86
2023/11/02 02:48:34;;;;;;;1.85;1.73;;;6.60;99.90;;;;;;4996676;28;20046;-85
2023/11/02 02:51:10;;;;;;;7.72;1.52;;;6.30;99.90;;;;;;4999172;28;20020;-85
2023/11/02 02:53:38;;;;;;;2.00;1.77;;;6.30;99.90;;;;;;4999235;28;20022;-86
2023/11/02 02:56:08;;;;;;;2.45;1.80;;;6.80;99.90;;;;;;4998204;28;20102;-86
2023/11/02 02:58:49;;;;;;;3.25;1.55;;;6.20;99.90;;;;;;4997535;28;20030;-85
2023/11/02 03:01:19;;;;;;;1.42;1.33;;;6.20;99.90;;;;;;5008645;28;20117;-85
2023/11/02 03:03:46;;;;;;;1.92;1.83;;;6.80;99.90;;;;;;4983745;28;20581;-85
2023/11/02 03:06:12;;;;;;;1.67;1.48;;;6.50;99.90;;;;;;4981293;28;20030;-84
2023/11/02 03:08:43;;;;;;;1.70;1.60;;;6.90;99.90;;;;;;4980629;28;20019;-85
2023/11/02 03:11:11;;;;;;;3.78;1.73;;;6.40;99.90;;;;;;4979492;28;20479;-85
2023/11/02 03:13:40;;;;;;;2.25;1.75;;;6.10;99.90;;;;;;4979256;28;20394;-85
2023/11/02 03:16:08;;;;;;;2.05;1.83;;;6.40;99.90;;;;;;4979079;28;20018;-85
2023/11/02 03:18:38;;;;;;;6.85;2.05;;;6.90;99.90;;;;;;4979603;28;20053;-85
2023/11/02 03:21:04;;;;;;;5.47;1.73;;;6.20;99.90;;;;;;4978898;28;20023;-85
2023/11/02 03:23:53;;;;;;;8.55;2.13;;;6.10;99.90;;;;;;4978645;28;20027;-85
2023/11/02 03:26:45;;;;;;;10.48;2.35;;;6.10;99.90;;;;;;4994501;28;20086;-85
2023/11/02 03:29:44;;;;;;;9.02;2.47;;;6.10;99.90;;;;;;4978784;28;20161;-84
2023/11/02 03:32:25;;;;;;;15.30;2.03;;;6.10;99.90;;;;;;4956507;28;20042;-85
2023/11/02 03:34:59;;;;;;;12.27;3.40;;;6.40;99.90;;;;;;4978150;28;20031;-85
2023/11/02 03:38:01;;;;;;;4.32;2.58;;;6.20;99.90;;;;;;4978973;28;20027;-85
2023/11/02 03:41:07;;;;;;;3.72;1.65;;;6.20;99.90;;;;;;4981337;28;20042;-85
2023/11/02 03:43:50;;;;;;;3.03;1.85;;;6.10;99.90;;;;;;4978130;28;20030;-85
2023/11/02 03:46:35;;;;;;;9.20;2.00;;;6.10;99.90;;;;;;4978075;28;20034;-85
2023/11/02 03:49:14;;;;;;;2.70;1.75;;;6.40;99.90;;;;;;4978075;28;20046;-87
2023/11/02 03:52:15;;;;;;;4.80;2.00;;;6.10;99.90;;;;;;4994590;28;20029;-85
2023/11/02 03:54:55;;;;;;;1.60;1.50;;;6.00;99.90;;;;;;4994347;28;20029;-84
2023/11/02 03:57:20;;;;;;;9.70;1.77;;;6.00;99.90;;;;;;4978088;28;20022;-85
2023/11/02 04:00:04;;;;;;;3.60;2.10;;;6.40;99.90;;;;;;4994574;28;20037;-86
2023/11/02 04:02:31;;;;;;;2.08;1.55;;;6.00;99.90;;;;;;4978228;28;20532;-84
2023/11/02 04:05:21;;;;;;;2.00;1.83;;;6.00;99.90;;;;;;4977829;28;20026;-85
2023/11/02 04:08:08;;;;;;;4.53;2.13;;;5.90;99.90;;;;;;4982497;28;20038;-85
2023/11/02 04:10:35;;;;;;;1.92;1.55;;;6.70;99.90;;;;;;4977822;28;20026;-85
2023/11/02 04:13:04;;;;;;;2.00;1.83;;;7.40;99.90;;;;;;4978386;28;20117;-85
2023/11/02 04:15:30;;;;;;;3.25;1.63;;;6.10;99.90;;;;;;5000394;28;20018;-85
2023/11/02 04:17:58;;;;;;;2.03;1.77;;;6.20;99.90;;;;;;4978950;28;20041;-85
2023/11/02 04:20:25;;;;;;;3.22;1.70;;;6.60;99.90;;;;;;4978171;28;20033;-85
2023/11/02 04:22:51;;;;;;;1.80;1.50;;;6.40;99.90;;;;;;4978377;28;20026;-85
2023/11/02 04:25:16;;;;;;;1.55;1.45;;;6.50;99.90;;;;;;4977952;28;20597;-85
2023/11/02 04:27:42;;;;;;;4.22;1.95;;;5.80;99.90;;;;;;4978375;28;20034;-85
2023/11/02 04:30:09;;;;;;;4.15;1.73;;;6.50;99.90;;;;;;4978825;28;20018;-85
2023/11/02 04:32:34;;;;;;;4.20;1.80;;;5.70;99.90;;;;;;4978032;28;20397;-85
2023/11/02 04:35:00;;;;;;;4.45;2.05;;;6.10;99.90;;;;;;4978462;28;20069;-85
2023/11/02 04:37:26;;;;;;;3.42;2.10;;;5.70;99.90;;;;;;4979240;28;20054;-85
2023/11/02 04:39:51;;;;;;;1.48;1.38;;;6.10;99.90;;;;;;4978336;28;20033;-85
2023/11/02 04:42:17;;;;;;;6.18;1.73;;;6.00;99.90;;;;;;4978548;28;20026;-85
2023/11/02 04:44:43;;;;;;;2.00;1.35;;;5.60;99.90;;;;;;4979110;28;20049;-84
2023/11/02 04:47:09;;;;;;;4.10;1.25;;;6.40;99.90;;;;;;4978718;28;20034;-84
2023/11/02 04:49:35;;;;;;;6.13;1.50;;;5.90;99.90;;;;;;4979128;28;20030;-85
2023/11/02 04:52:06;;;;;;;4.10;2.00;;;5.60;99.90;;;;;;4978276;28;20023;-85
2023/11/02 04:54:32;;;;;;;6.03;2.22;;;6.30;99.90;;;;;;4978542;28;20033;-85
2023/11/02 04:57:00;;;;;;;4.55;2.35;;;5.60;99.90;;;;;;4979409;28;20031;-85
2023/11/02 04:59:25;;;;;;;3.72;2.65;;;6.10;99.90;;;;;;4978923;28;20134;-85
2023/11/02 05:01:51;;;;;;;6.88;2.20;;;5.60;99.90;;;;;;4979746;28;20065;-85
2023/11/02 05:04:17;;;;;;;10.57;1.80;;;5.50;99.90;;;;;;4981962;28;20037;-86
2023/11/02 05:06:43;;;;;;;9.43;2.50;;;5.70;99.90;;;;;;4982019;28;20509;-85
2023/11/02 05:09:09;;;;;;;19.42;5.57;;;5.50;99.90;;;;;;4981497;28;20030;-85
2023/11/02 05:11:35;;;;;;;17.33;5.63;;;6.30;99.90;;;;;;4981439;28;20030;-85
2023/11/02 05:14:01;;;;;;;7.18;3.35;;;6.30;99.90;;;;;;4981549;28;20026;-85
2023/11/02 05:16:27;;;;;;;5.35;2.47;;;5.50;99.90;;;;;;4981338;28;20026;-86
2023/11/02 05:18:53;;;;;;;3.65;1.60;;;5.40;99.90;;;;;;4981883;28;20037;-86
2023/11/02 05:21:19;;;;;;;7.55;1.90;;;5.40;99.90;;;;;;4982769;28;20029;-87
2023/11/02 05:23:44;;;;;;;4.10;2.92;;;5.60;99.90;;;;;;4983253;28;20046;-86
2023/11/02 05:26:13;;;;;;;10.68;2.60;;;6.00;99.90;;;;;;4981914;28;20556;-86
2023/11/02 05:28:38;;;;;;;5.63;2.10;;;5.80;99.90;;;;;;4981068;28;20121;-86
2023/11/02 05:31:04;;;;;;;1.88;1.73;;;5.30;99.90;;;;;;4981454;28;20054;-86
2023/11/02 05:33:30;;;;;;;4.25;1.95;;;5.20;99.90;;;;;;4980941;28;20018;-86
2023/11/02 05:35:55;;;;;;;4.03;1.77;;;5.80;99.90;;;;;;4980862;28;20081;-86
2023/11/02 05:38:21;;;;;;;2.40;1.63;;;5.20;99.90;;;;;;4981105;28;20513;-86
2023/11/02 05:40:47;;;;;;;2.88;2.20;;;4.00;99.90;;;;;;4981602;28;20031;-86
2023/11/02 05:43:13;;;;;;;10.65;2.80;;;5.10;99.90;;;;;;4980599;28;20027;-86
2023/11/02 05:45:39;;;;;;;10.02;3.53;;;6.70;99.90;;;;;;4980892;28;20034;-86
2023/11/02 05:48:05;;;;;;;4.78;2.13;;;5.60;99.90;;;;;;4981488;28;20121;-86
2023/11/02 05:50:31;;;;;;;6.03;2.75;;;5.00;99.90;;;;;;4981017;28;20022;-85
2023/11/02 05:52:57;;;;;;;5.13;2.47;;;5.00;99.90;;;;;;4981863;28;20031;-85
2023/11/02 05:55:22;;;;;;;5.43;2.30;;;5.00;99.90;;;;;;4983039;28;20073;-85
2023/11/02 05:57:49;;;;;;;3.08;2.35;;;5.00;99.90;;;;;;4983448;28;20026;-85
2023/11/02 06:00:16;;;;;;;4.32;1.35;;;6.10;99.90;;;;;;4983650;28;20037;-85
2023/11/02 06:02:41;;;;;;;2.30;1.85;;;5.10;99.90;;;;;;4985876;28;20054;-85
2023/11/02 06:05:08;;;;;;;3.33;1.52;;;5.10;99.90;;;;;;4984766;28;20049;-86
2023/11/02 06:07:35;;;;;;;8.73;2.95;;;5.00;99.90;;;;;;4985630;28;20078;-85
2023/11/02 06:10:00;;;;;;;4.10;2.15;;;5.10;99.90;;;;;;4982326;28;20062;-84
2023/11/02 06:12:28;;;;;;;3.75;2.25;;;7.10;99.90;;;;;;4984777;28;20073;-85
2023/11/02 06:14:53;;;;;;;7.25;3.05;;;5.70;99.90;;;;;;4991081;28;20050;-85
2023/11/02 06:17:19;;;;;;;7.35;1.98;;;5.40;99.90;;;;;;4997949;28;20018;-85
2023/11/02 06:19:45;;;;;;;11.93;2.50;;;5.20;99.90;;;;;;4998730;28;20216;-84
2023/11/02 06:22:12;;;;;;;3.22;2.50;;;5.60;99.90;;;;;;5000850;28;20014;-84
2023/11/02 06:24:38;;;;;;;6.10;2.58;;;5.20;99.90;;;;;;4999794;28;20025;-85
2023/11/02 06:27:04;;;;;;;8.40;2.40;;;6.50;99.90;;;;;;5000956;28;20025;-85
2023/11/02 06:29:30;;;;;;;13.57;3.15;;;5.20;99.90;;;;;;4995567;28;20010;-84
2023/11/02 06:31:56;;;;;;;9.73;2.92;;;5.90;99.90;;;;;;4981875;28;20038;-84
2023/11/02 06:34:21;;;;;;;13.57;2.97;;;5.20;99.90;;;;;;4981637;28;20023;-83
2023/11/02 06:36:47;;;;;;;3.35;3.05;;;5.20;99.90;;;;;;4983619;28;20034;-83
2023/11/02 06:39:19;;;;;;;2.30;2.10;;;5.20;99.90;;;;;;4982552;28;20457;-84
2023/11/02 06:41:45;;;;;;;5.45;1.88;;;5.20;99.90;;;;;;4981691;28;20057;-84
2023/11/02 06:44:11;;;;;;;10.20;2.45;;;6.50;99.90;;;;;;4981939;28;20035;-84
2023/11/02 06:46:36;;;;;;;7.40;2.40;;;5.70;99.90;;;;;;4981251;28;20057;-84
2023/11/02 06:49:03;;;;;;;6.63;2.00;;;5.70;99.90;;;;;;4981150;28;20026;-84
2023/11/02 06:51:28;;;;;;;9.88;2.80;;;5.30;99.90;;;;;;4983226;28;20094;-85
2023/11/02 06:53:54;;;;;;;8.93;2.42;;;5.40;99.90;;;;;;4982930;28;20053;-84
2023/11/02 06:56:22;;;;;;;4.30;2.88;;;5.40;99.90;;;;;;4985027;28;20022;-86
2023/11/02 06:58:47;;;;;;;14.65;2.92;;;6.20;99.90;;;;;;4989526;28;20093;-85
2023/11/02 07:01:13;;;;;;;2.30;2.10;;;6.70;99.90;;;;;;4983022;28;20080;-80
2023/11/02 07:03:39;;;;;;;2.40;1.60;;;6.10;99.90;;;;;;4977785;28;20023;-80
2023/11/02 07:06:06;;;;;;;8.20;1.92;;;5.70;99.90;;;;;;4986948;28;20510;-85
2023/11/02 07:08:32;;;;;;;11.93;2.80;;;6.20;99.90;;;;;;4986817;28;20038;-85
2023/11/02 07:10:57;;;;;;;4.57;2.13;;;6.60;99.90;;;;;;4986362;28;20030;-85
2023/11/02 07:13:23;;;;;;;3.15;2.10;;;4.60;99.90;;;;;;4986128;28;20505;-86
2023/11/02 07:15:49;;;;;;;1.95;1.55;;;6.50;99.90;;;;;;4967024;28;20034;-85
2023/11/02 07:18:16;;;;;;;2.05;1.85;;;5.30;99.90;;;;;;4983841;28;20058;-85
2023/11/02 07:20:41;;;;;;;1.40;1.30;;;5.80;99.90;;;;;;4984042;28;20023;-86
2023/11/02 07:23:08;;;;;;;3.10;2.10;;;7.10;99.90;;;;;;4982500;28;20035;-85
2023/11/02 07:25:33;;;;;;;4.00;1.98;;;5.90;99.90;;;;;;4982515;28;20027;-86
2023/11/02 07:27:59;;;;;;;3.17;1.60;;;6.00;99.90;;;;;;4982035;28;20166;-85
2023/11/02 07:30:25;;;;;;;2.40;2.17;;;6.50;99.90;;;;;;4983172;28;20037;-85
2023/11/02 07:32:51;;;;;;;2.20;1.70;;;6.50;99.90;;;;;;4983309;28;20023;-86
2023/11/02 07:35:16;;;;;;;4.88;1.85;;;6.20;99.90;;;;;;4982165;28;20026;-86
2023/11/02 07:37:42;;;;;;;3.53;2.92;;;6.30;99.90;;;;;;4981173;28;20049;-85
2023/11/02 07:40:08;;;;;;;2.22;2.03;;;7.30;99.90;;;;;;4981534;28;20026;-85
2023/11/02 07:42:34;;;;;;;2.67;2.00;;;6.30;99.90;;;;;;4980119;28;20062;-85
2023/11/02 07:45:00;;;;;;;7.82;2.15;;;6.70;99.90;;;;;;4979441;28;20045;-85
2023/11/02 07:47:25;;;;;;;2.10;2.00;;;7.00;99.90;;;;;;4983137;28;20031;-86
2023/11/02 07:49:51;;;;;;;2.53;2.05;;;7.20;99.90;;;;;;4983569;28;20039;-83
2023/11/02 07:52:19;;;;;;;3.92;3.15;;;8.50;99.90;;;;;;4976066;28;20110;-85
2023/11/02 07:54:45;;;;;;;5.78;3.22;;;9.40;99.90;;;;;;4974209;28;20027;-81
2023/11/02 07:57:11;;;;;;;3.38;2.92;;;9.40;99.90;;;;;;4975270;28;20487;-82
2023/11/02 07:59:37;;;;;;;5.07;3.90;;;10.00;99.90;;;;;;4974522;28;20123;-81
2023/11/02 08:02:04;;;;;;;5.70;5.07;;;10.30;99.90;;;;;;4971464;28;20038;-81
2023/11/02 08:04:30;;;;;;;5.38;4.80;;;10.50;99.90;;;;;;4955415;28;20102;-83
2023/11/02 08:06:56;;;;;;;3.92;3.60;;;10.60;99.90;;;;;;4955663;28;20491;-81
2023/11/02 08:09:22;;;;;;;4.18;3.78;;;11.10;99.90;;;;;;4955970;29;20075;-83
2023/11/02 08:11:48;;;;;;;5.30;4.15;;;11.20;99.90;;;;;;4956861;29;20030;-83
2023/11/02 08:14:14;;;;;;;8.82;3.90;;;11.10;99.90;;;;;;4956950;29;20031;-83
2023/11/02 08:16:42;;;;;;;4.68;3.47;;;11.00;99.90;;;;;;4971922;28;20031;-81
2023/11/02 08:19:09;;;;;;;10.48;5.13;;;11.30;99.90;;;;;;4956349;29;20034;-82
2023/11/02 08:21:35;;;;;;;6.25;4.28;;;10.90;99.90;;;;;;4956856;29;20023;-82
2023/11/02 08:24:00;;;;;;;9.48;3.67;;;11.10;99.90;;;;;;4954556;29;20491;-81
2023/11/02 08:26:26;;;;;;;3.97;2.63;;;11.30;99.90;;;;;;4967110;28;20058;-82
2023/11/02 08:28:53;;;;;;;2.42;2.22;;;11.40;99.90;;;;;;4958922;28;20043;-83
2023/11/02 08:31:26;;;;;;;2.20;1.85;;;11.40;99.90;;;;;;4975613;28;20029;-82
2023/11/02 08:33:52;;;;;;;6.30;2.10;;;11.50;99.90;;;;;;4958394;28;20027;-82
2023/11/02 08:36:21;;;;;;;1.88;1.25;;;11.20;99.90;;;;;;4961989;28;20087;-83
2023/11/02 08:38:47;;;;;;;1.88;1.48;;;10.90;99.90;;;;;;4964733;28;20065;-84
2023/11/02 08:41:30;;;;;;;4.72;2.20;;;10.80;99.90;;;;;;4964341;28;20027;-85
2023/11/02 08:43:58;;;;;;;2.72;1.92;;;10.80;99.90;;;;;;4965250;28;20022;-83
2023/11/02 08:46:24;;;;;;;3.25;2.03;;;10.80;99.90;;;;;;4955798;29;20059;-84
2023/11/02 08:48:52;;;;;;;3.20;2.35;;;10.80;99.90;;;;;;4949765;29;20032;-84
2023/11/02 08:51:19;;;;;;;2.50;1.67;;;10.80;99.90;;;;;;4961083;28;20030;-83
2023/11/02 08:53:46;;;;;;;2.78;2.13;;;10.80;99.90;;;;;;4977173;28;20024;-83
2023/11/02 08:56:12;;;;;;;2.67;1.73;;;11.00;99.90;;;;;;4961181;28;20024;-83
2023/11/02 08:58:43;;;;;;;2.60;1.63;;;11.10;99.90;;;;;;4961413;28;20035;-83
2023/11/02 09:01:10;;;;;;;1.58;1.48;;;11.30;99.90;;;;;;4961808;29;20031;-88
2023/11/02 09:03:39;;;;;;;4.60;1.58;;;11.40;99.90;;;;;;4963436;28;20034;-85
2023/11/02 09:06:06;;;;;;;2.63;1.42;;;11.50;99.90;;;;;;4963129;28;20036;-84
2023/11/02 09:08:34;;;;;;;5.00;1.30;;;11.60;99.90;;;;;;4961825;28;20027;-85
2023/11/02 09:10:59;;;;;;;5.30;1.70;;;11.70;99.90;;;;;;4962899;28;20032;-84
2023/11/02 09:13:25;;;;;;;1.42;1.33;;;12.00;99.90;;;;;;4961336;28;20042;-84
2023/11/02 09:15:51;;;;;;;2.28;1.63;;;12.20;99.90;;;;;;4961786;28;20033;-86
2023/11/02 09:18:17;;;;;;;0.95;0.95;;;12.40;99.90;;;;;;4969744;28;20035;-86
2023/11/02 09:20:42;;;;;;;2.95;1.05;;;12.50;99.90;;;;;;4971420;28;20074;-88
2023/11/02 09:23:09;;;;;;;2.53;1.30;;;12.60;99.90;;;;;;4972263;28;20100;-86
2023/11/02 09:25:34;;;;;;;1.35;1.23;;;12.60;99.90;;;;;;4968206;28;20047;-86
2023/11/02 09:28:00;;;;;;;2.30;1.05;;;12.80;99.90;;;;;;4964386;28;20384;-87
2023/11/02 09:30:26;;;;;;;1.50;1.00;;;12.80;99.90;;;;;;4960425;28;20454;-83
2023/11/02 09:32:52;;;;;;;2.95;1.75;;;13.60;99.90;;;;;;4962500;28;20037;-85
2023/11/02 09:35:19;;;;;;;2.38;1.98;;;13.90;99.90;;;;;;4965301;28;20527;-84
2023/11/02 09:37:45;;;;;;;2.30;1.70;;;14.00;99.90;;;;;;4965160;29;20015;-88
2023/11/02 09:40:11;;;;;;;4.22;1.88;;;14.20;99.90;;;;;;4979839;28;20054;-87
2023/11/02 09:42:37;;;;;;;3.85;1.42;;;14.50;99.90;;;;;;4961523;29;20147;-86
2023/11/02 09:45:07;;;;;;;1.60;1.08;;;14.40;99.90;;;;;;4962913;28;20059;-86
2023/11/02 09:47:33;;;;;;;0.70;0.70;;;14.30;99.90;;;;;;4962244;28;20027;-85
2023/11/02 09:49:58;;;;;;;1.45;0.77;;;14.30;99.90;;;;;;4961436;29;20038;-84
2023/11/02 09:52:25;;;;;;;5.00;0.60;;;14.50;99.90;;;;;;4960575;29;20038;-81
2023/11/02 09:54:50;;;;;;;2.38;0.60;;;14.60;99.90;;;;;;4959933;28;20051;-81
2023/11/02 09:57:18;;;;;;;8.55;2.30;;;14.80;99.90;;;;;;4963557;28;20067;-85
2023/11/02 09:59:46;;;;;;;4.70;0.75;;;14.90;99.90;;;;;;4960519;29;20038;-84
2023/11/02 10:02:13;;;;;;;7.38;0.77;;;15.20;99.90;;;;;;4963196;28;20027;-84
2023/11/02 10:04:38;;;;;;;3.67;0.70;;;15.40;99.90;;;;;;4968453;28;20031;-87
2023/11/02 10:07:07;;;;;;;2.38;1.48;;;15.50;99.90;;;;;;4976039;28;20019;-86
2023/11/02 10:09:35;;;;;;;4.47;2.60;;;15.60;99.90;;;;;;4982807;28;20026;-84
2023/11/02 10:12:01;;;;;;;6.55;3.63;;;15.70;99.90;;;;;;4982082;28;20307;-86
2023/11/02 10:14:27;;;;;;;8.95;4.80;;;15.90;99.90;;;;;;4976333;28;20039;-81
2023/11/02 10:17:02;;;;;;;3.95;2.20;;;15.90;99.90;;;;;;4961749;28;20106;-82
2023/11/02 10:19:29;;;;;;;5.22;2.97;;;16.00;99.90;;;;;;4949566;29;20036;-79
2023/11/02 10:21:55;;;;;;;2.08;1.42;;;16.20;99.90;;;;;;4962720;28;20032;-78
2023/11/02 10:24:34;;;;;;;2.25;1.70;;;16.20;99.90;;;;;;4940617;29;20034;-77
2023/11/02 10:27:02;;;;;;;1.20;0.95;;;16.30;99.90;;;;;;4962574;28;20433;-77
2023/11/02 10:29:31;;;;;;;1.15;0.82;;;16.40;99.90;;;;;;4942538;29;20023;-77
2023/11/02 10:31:57;;;;;;;5.20;1.50;;;16.20;99.90;;;;;;4941071;29;20114;-79
2023/11/02 10:34:25;;;;;;;2.47;1.95;;;16.20;99.90;;;;;;4967139;28;20047;-79
2023/11/02 10:36:52;;;;;;;2.78;1.20;;;16.20;99.90;;;;;;4946226;28;20032;-83
2023/11/02 10:39:19;;;;;;;1.05;0.93;;;16.20;99.90;;;;;;4945062;29;20038;-82
2023/11/02 10:42:05;;;;;;;1.58;0.70;;;16.30;99.90;;;;;;4977221;28;20035;-81
2023/11/02 10:44:33;;;;;;;7.13;1.95;;;16.30;99.90;;;;;;4959907;28;20070;-81
2023/11/02 10:47:01;;;;;;;2.13;0.95;;;16.40;99.90;;;;;;4961217;29;20031;-81
2023/11/02 10:49:34;;;;;;;1.13;0.77;;;16.30;99.90;;;;;;4945202;28;20019;-82
2023/11/02 10:52:03;;;;;;;1.85;1.17;;;16.40;99.90;;;;;;4943547;29;20391;-81
2023/11/02 10:54:54;;;;;;;1.70;0.57;;;16.60;99.90;;;;;;4975240;28;20034;-82
2023/11/02 10:57:22;;;;;;;5.03;1.08;;;16.70;99.90;;;;;;4943505;29;20035;-80
2023/11/02 10:59:48;;;;;;;3.78;1.38;;;16.70;99.80;;;;;;4943519;28;20435;-79
2023/11/02 11:02:15;;;;;;;4.13;1.65;;;16.60;99.70;;;;;;4960170;28;20027;-80
2023/11/02 11:04:43;;;;;;;2.83;1.80;;;16.50;99.90;;;;;;4960315;28;20369;-81
2023/11/02 11:07:09;;;;;;;3.53;1.65;;;16.50;99.90;;;;;;4962291;28;20031;-79
2023/11/02 11:09:42;;;;;;;7.97;2.08;;;16.40;99.90;;;;;;4975670;28;20023;-77
2023/11/02 11:12:09;;;;;;;3.00;1.13;;;16.40;99.90;;;;;;4975578;28;20038;-81
2023/11/02 11:14:37;;;;;;;4.25;1.92;;;16.20;99.90;;;;;;4957333;28;20498;-81
2023/11/02 11:17:04;;;;;;;4.80;1.13;;;16.30;99.90;;;;;;4957361;28;20474;-81
2023/11/02 11:19:31;;;;;;;0.73;0.55;;;16.30;99.90;;;;;;4973531;28;20053;-77
2023/11/02 11:22:00;;;;;;;4.20;0.90;;;16.40;99.90;;;;;;4975566;28;20030;-81
2023/11/02 11:24:32;;;;;;;1.25;0.63;;;16.40;99.90;;;;;;4977415;28;20101;-79
2023/11/02 11:27:00;;;;;;;4.20;0.98;;;16.40;99.90;;;;;;4977409;28;20068;-78
2023/11/02 11:29:35;;;;;;;3.03;1.17;;;16.40;99.90;;;;;;4978423;28;20034;-80
2023/11/02 11:32:02;;;;;;;1.75;0.68;;;16.30;99.90;;;;;;4976715;28;20050;-78
2023/11/02 11:34:54;;;;;;;2.40;1.27;;;16.30;99.90;;;;;;4978363;28;20023;-79
2023/11/02 11:37:58;;;;;;;1.35;0.80;;;16.20;99.90;;;;;;4962062;28;20034;-78
2023/11/02 11:40:32;;;;;;;2.97;1.13;;;16.30;99.90;;;;;;4981830;28;20033;-80
2023/11/02 11:43:01;;;;;;;5.25;1.10;;;16.30;99.90;;;;;;4980010;28;20059;-80
2023/11/02 11:46:01;;;;;;;3.40;0.60;;;16.20;99.90;;;;;;4980975;28;20031;-76
2023/11/02 11:48:39;;;;;;;4.47;1.40;;;16.20;99.90;;;;;;4969863;28;20098;-80
2023/11/02 11:51:40;;;;;;;1.48;1.23;;;16.20;99.90;;;;;;4978814;28;20113;-78
2023/11/02 11:54:16;;;;;;;0.50;0.50;;;16.20;99.90;;;;;;4980410;28;20037;-80
2023/11/02 11:56:45;;;;;;;0.85;0.60;;;16.00;99.90;;;;;;4964698;28;20027;-80
2023/11/02 11:59:11;;;;;;;2.47;0.52;;;16.00;99.90;;;;;;4978903;28;20491;-80
2023/11/02 12:01:37;;;;;;;1.77;0.30;;;16.00;99.90;;;;;;4965645;28;20023;-80
2023/11/02 12:04:04;;;;;;;1.05;0.45;;;16.00;99.90;;;;;;4979753;28;20034;-79
2023/11/02 12:06:43;;;;;;;0.55;0.55;;;16.00;99.90;;;;;;4962181;28;20051;-80
2023/11/02 12:09:16;;;;;;;5.88;2.70;;;16.00;99.90;;;;;;4980099;28;20026;-80
2023/11/02 12:11:42;;;;;;;9.88;3.65;;;16.00;99.90;;;;;;4980730;28;20019;-78
2023/11/02 12:14:15;;;;;;;4.50;2.95;;;16.00;99.90;;;;;;4983193;28;20034;-79
2023/11/02 12:16:41;;;;;;;3.45;2.33;;;16.00;99.90;;;;;;4981914;28;20398;-79
2023/11/02 12:19:08;;;;;;;5.28;4.68;;;16.10;99.90;;;;;;4963610;28;20067;-81
2023/11/02 12:21:35;;;;;;;3.33;1.80;;;16.10;99.90;;;;;;4981643;28;20583;-82
2023/11/02 12:24:01;;;;;;;5.07;1.73;;;16.30;99.90;;;;;;4980953;28;20106;-77
2023/11/02 12:26:27;;;;;;;0.70;0.70;;;16.30;99.90;;;;;;4981062;28;20310;-76
2023/11/02 12:28:56;;;;;;;3.75;1.05;;;16.30;99.90;;;;;;4981914;28;20027;-80
2023/11/02 12:31:30;;;;;;;2.22;1.83;;;16.40;99.90;;;;;;4979885;28;20073;-79
2023/11/02 12:34:01;;;;;;;1.45;1.08;;;16.40;99.90;;;;;;4981810;28;20075;-80
2023/11/02 12:36:27;;;;;;;3.00;1.40;;;16.40;99.90;;;;;;4984842;28;20027;-81
2023/11/02 12:38:55;;;;;;;2.33;1.85;;;16.30;99.90;;;;;;4965307;28;20495;-79
2023/11/02 12:41:28;;;;;;;1.85;1.17;;;16.40;99.90;;;;;;4981716;28;20019;-79
2023/11/02 12:44:12;;;;;;;3.60;2.33;;;16.30;99.90;;;;;;4981554;28;20041;-80
2023/11/02 12:46:44;;;;;;;6.95;4.80;;;16.30;99.90;;;;;;4980480;28;20158;-80
2023/11/02 12:49:17;;;;;;;4.47;3.53;;;16.30;99.90;;;;;;4980972;28;20027;-82
2023/11/02 12:52:04;;;;;;;9.15;4.22;;;16.20;99.90;;;;;;4964924;28;20090;-80
2023/11/02 12:54:31;;;;;;;4.60;3.35;;;16.30;99.90;;;;;;4964152;28;20038;-80
2023/11/02 12:57:02;;;;;;;8.32;3.85;;;16.20;99.90;;;;;;4980540;28;20034;-81
2023/11/02 12:59:38;;;;;;;2.22;1.13;;;16.20;99.90;;;;;;4980927;28;20033;-80
2023/11/02 13:02:06;;;;;;;2.35;1.65;;;16.20;99.90;;;;;;4964738;28;20042;-78
2023/11/02 13:05:00;;;;;;;3.67;1.55;;;16.30;99.90;;;;;;4982352;28;20027;-81
2023/11/02 13:07:31;;;;;;;2.58;2.00;;;16.30;99.90;;;;;;4979076;28;20035;-79
2023/11/02 13:10:03;;;;;;;8.90;5.10;;;16.40;99.90;;;;;;4982727;28;20026;-78